createdAt,value
2022-08-14T00:01:55.453Z,5.18
2022-08-14T00:04:32.174Z,5.03
2022-08-14T00:07:05.985Z,5.75
2022-08-14T00:09:33.372Z,5.95
2022-08-14T00:12:23.932Z,4.53
2022-08-14T00:14:54.797Z,5.57
2022-08-14T00:17:22.566Z,5.07
2022-08-14T00:19:49.232Z,4.80
2022-08-14T00:22:22.101Z,4.93
2022-08-14T00:25:07.629Z,5.00
2022-08-14T00:27:35.298Z,4.63
2022-08-14T00:30:07.307Z,5.82
2022-08-14T00:32:55.678Z,5.65
2022-08-14T00:35:20.504Z,5.65
2022-08-14T00:38:02.313Z,5.25
2022-08-14T00:40:35.743Z,5.70
2022-08-14T00:45:30.615Z,5.93
2022-08-14T00:48:00.006Z,5.18
2022-08-14T00:50:30.723Z,5.20
2022-08-14T00:53:00.035Z,6.30
2022-08-14T00:55:28.369Z,6.38
2022-08-14T00:58:17.584Z,5.18
2022-08-14T01:00:50.993Z,5.35
2022-08-14T01:03:20.115Z,5.85
2022-08-14T01:05:51.938Z,6.60
2022-08-14T01:08:52.066Z,4.95
2022-08-14T01:11:19.549Z,5.57
2022-08-14T01:13:55.641Z,5.72
2022-08-14T01:16:30.670Z,5.32
2022-08-14T01:19:16.571Z,5.25
2022-08-14T01:21:47.246Z,6.15
2022-08-14T01:24:22.910Z,5.82
2022-08-14T01:26:55.640Z,6.25
2022-08-14T01:29:58.610Z,4.88
2022-08-14T01:32:10.551Z,5.80
2022-08-14T01:35:18.699Z,5.35
2022-08-14T01:37:24.917Z,6.25
2022-08-14T01:39:54.489Z,5.47
2022-08-14T01:42:31.916Z,4.82
2022-08-14T01:45:11.312Z,5.72
2022-08-14T01:47:38.840Z,6.07
2022-08-14T01:50:07.951Z,6.03
2022-08-14T01:52:59.427Z,5.78
2022-08-14T01:55:31.259Z,5.43
2022-08-14T01:58:00.888Z,5.72
2022-08-14T02:00:44.618Z,5.70
2022-08-14T02:03:16.124Z,6.75
2022-08-14T02:05:43.310Z,5.60
2022-08-14T02:08:10.618Z,6.13
2022-08-14T02:10:46.739Z,5.43
2022-08-14T02:13:22.225Z,5.97
2022-08-14T02:15:50.327Z,6.00
2022-08-14T02:18:18.135Z,5.60
2022-08-14T02:20:45.144Z,6.03
2022-08-14T02:23:14.246Z,5.72
2022-08-14T02:25:40.987Z,6.20
2022-08-14T02:28:24.094Z,5.68
2022-08-14T02:30:55.091Z,6.10
2022-08-14T02:33:22.607Z,6.05
2022-08-14T02:35:53.313Z,5.75
2022-08-14T02:38:30.323Z,6.22
2022-08-14T02:41:00.762Z,6.25
2022-08-14T02:43:36.768Z,5.80
2022-08-14T02:46:04.520Z,6.07
2022-08-14T02:49:03.985Z,5.70
2022-08-14T02:51:23.496Z,5.93
2022-08-14T02:53:51.999Z,5.68
2022-08-14T02:56:30.675Z,5.65
2022-08-14T02:59:09.497Z,7.15
2022-08-14T03:01:50.117Z,6.45
2022-08-14T03:04:17.610Z,5.55
2022-08-14T03:06:57.755Z,5.95
2022-08-14T03:10:25.007Z,6.10
2022-08-14T03:12:31.846Z,5.85
2022-08-14T03:15:03.060Z,6.18
2022-08-14T03:17:31.981Z,6.78
2022-08-14T03:20:11.369Z,5.65
2022-08-14T03:22:42.209Z,6.63
2022-08-14T03:25:10.750Z,6.32
2022-08-14T03:27:48.238Z,6.25
2022-08-14T03:30:25.168Z,7.13
2022-08-14T03:33:08.673Z,6.47
2022-08-14T03:35:40.300Z,6.45
2022-08-14T03:39:22.075Z,7.93
2022-08-14T03:41:16.646Z,7.10
2022-08-14T03:43:47.897Z,6.82
2022-08-14T03:46:51.780Z,6.78
2022-08-14T03:49:14.399Z,6.18
2022-08-14T03:51:51.004Z,6.28
2022-08-14T03:54:20.440Z,6.40
2022-08-14T03:56:47.261Z,6.50
2022-08-14T03:59:18.023Z,6.75
2022-08-14T04:01:58.172Z,6.95
2022-08-14T04:04:33.479Z,7.22
2022-08-14T04:07:00.427Z,6.90
2022-08-14T04:09:27.538Z,7.35
2022-08-14T04:11:54.643Z,6.25
2022-08-14T04:14:23.620Z,6.47
2022-08-14T04:16:50.801Z,7.57
2022-08-14T04:19:20.464Z,6.75
2022-08-14T04:22:02.177Z,8.25
2022-08-14T04:24:37.611Z,6.55
2022-08-14T04:27:11.470Z,8.02
2022-08-14T04:29:40.445Z,7.32
2022-08-14T04:33:02.566Z,8.43
2022-08-14T04:34:56.939Z,7.25
2022-08-14T04:37:43.246Z,7.30
2022-08-14T04:40:31.673Z,8.15
2022-08-14T04:43:17.687Z,7.40
2022-08-14T04:45:44.852Z,7.00
2022-08-14T04:48:36.748Z,6.53
2022-08-14T04:51:03.525Z,6.82
2022-08-14T04:53:35.625Z,7.68
2022-08-14T04:56:10.382Z,7.75
2022-08-14T04:58:39.093Z,7.05
2022-08-14T05:01:12.865Z,7.70
2022-08-14T05:03:44.621Z,7.45
2022-08-14T05:06:37.480Z,7.70
2022-08-14T05:08:59.990Z,8.07
2022-08-14T05:11:27.313Z,7.70
2022-08-14T05:14:33.065Z,8.50
2022-08-14T05:16:42.529Z,7.18
2022-08-14T05:19:17.948Z,8.05
2022-08-14T05:21:59.585Z,8.45
2022-08-14T05:24:28.744Z,7.50
2022-08-14T05:26:55.737Z,7.88
2022-08-14T05:29:23.169Z,8.52
2022-08-14T05:31:55.781Z,7.78
2022-08-14T05:34:23.774Z,6.85
2022-08-14T05:36:58.877Z,7.25
2022-08-14T05:39:29.808Z,7.72
2022-08-14T05:41:56.718Z,7.82
2022-08-14T05:44:27.869Z,8.07
2022-08-14T05:46:57.100Z,7.57
2022-08-14T05:49:32.628Z,8.68
2022-08-14T05:51:59.750Z,7.70
2022-08-14T05:54:28.418Z,8.18
2022-08-14T05:57:02.295Z,8.10
2022-08-14T05:59:36.454Z,8.75
2022-08-14T06:02:05.820Z,8.75
2022-08-14T06:04:32.646Z,7.30
2022-08-14T06:06:59.311Z,8.07
2022-08-14T06:09:25.797Z,7.07
2022-08-14T06:11:53.088Z,6.90
2022-08-14T06:14:23.983Z,7.43
2022-08-14T06:16:52.920Z,8.65
2022-08-14T06:19:20.041Z,7.75
2022-08-14T06:21:46.712Z,8.25
2022-08-14T06:24:18.591Z,7.70
2022-08-14T06:26:51.894Z,7.25
2022-08-14T06:29:23.735Z,7.20
2022-08-14T06:35:04.293Z,7.72
2022-08-14T06:37:18.707Z,8.70
2022-08-14T06:39:45.889Z,6.53
2022-08-14T06:42:18.333Z,7.05
2022-08-14T06:45:01.525Z,8.18
2022-08-14T06:47:33.221Z,7.60
2022-08-14T06:49:59.625Z,7.60
2022-08-14T06:52:26.219Z,7.45
2022-08-14T06:54:57.000Z,6.78
2022-08-14T06:57:35.924Z,6.95
2022-08-14T07:00:06.834Z,6.95
2022-08-14T07:02:51.945Z,7.00
2022-08-14T07:05:38.196Z,6.55
2022-08-14T07:08:26.262Z,7.25
2022-08-14T07:10:59.614Z,6.60
2022-08-14T07:13:27.546Z,5.68
2022-08-14T07:15:55.748Z,6.07
2022-08-14T07:18:24.236Z,6.63
2022-08-14T07:20:51.126Z,6.13
2022-08-14T07:23:19.757Z,7.53
2022-08-14T07:25:48.685Z,6.78
2022-08-14T07:28:24.678Z,6.07
2022-08-14T07:31:05.248Z,5.93
2022-08-14T07:33:41.706Z,6.15
2022-08-14T07:36:27.840Z,7.40
2022-08-14T07:38:58.933Z,6.63
2022-08-14T07:41:31.436Z,6.63
2022-08-14T07:44:06.083Z,7.03
2022-08-14T07:46:49.052Z,5.55
2022-08-14T07:49:19.928Z,6.05
2022-08-14T07:51:49.566Z,6.40
2022-08-14T07:54:23.449Z,6.75
2022-08-14T07:59:42.464Z,6.38
2022-08-14T08:02:18.110Z,6.47
2022-08-14T08:04:53.018Z,5.82
2022-08-14T08:07:22.138Z,6.00
2022-08-14T08:09:54.531Z,7.07
2022-08-14T08:12:26.253Z,6.15
2022-08-14T08:15:05.657Z,6.13
2022-08-14T08:17:38.691Z,6.00
2022-08-14T08:20:11.805Z,6.05
2022-08-14T08:22:43.490Z,6.80
2022-08-14T08:25:18.150Z,6.03
2022-08-14T08:28:22.154Z,7.10
2022-08-14T08:30:57.941Z,6.22
2022-08-14T08:33:37.046Z,6.45
2022-08-14T08:36:12.933Z,5.85
2022-08-14T08:39:17.485Z,7.22
2022-08-14T08:41:50.469Z,6.15
2022-08-14T08:44:32.287Z,6.43
2022-08-14T08:47:05.399Z,6.30
2022-08-14T08:49:48.320Z,6.57
2022-08-14T08:52:24.962Z,6.03
2022-08-14T08:54:57.929Z,6.18
2022-08-14T08:57:25.551Z,7.07
2022-08-14T08:59:55.197Z,5.60
2022-08-14T09:02:26.207Z,6.47
2022-08-14T09:05:02.468Z,6.53
2022-08-14T09:07:28.917Z,6.53
2022-08-14T09:10:00.019Z,6.53
2022-08-14T09:12:32.527Z,6.35
2022-08-14T09:15:11.933Z,6.05
2022-08-14T09:17:40.259Z,5.85
2022-08-14T09:20:11.536Z,6.53
2022-08-14T09:22:47.365Z,5.70
2022-08-14T09:25:15.538Z,6.05
2022-08-14T09:27:42.233Z,6.15
2022-08-14T09:30:30.645Z,5.63
2022-08-14T09:33:12.778Z,7.20
2022-08-14T09:36:04.597Z,6.25
2022-08-14T09:39:21.200Z,5.55
2022-08-14T09:42:20.246Z,5.63
2022-08-14T09:45:12.826Z,6.03
2022-08-14T09:47:54.011Z,6.60
2022-08-14T09:50:33.142Z,6.30
2022-08-14T09:53:04.980Z,5.85
2022-08-14T09:55:41.497Z,6.25
2022-08-14T09:58:22.521Z,6.47
2022-08-14T10:00:50.527Z,5.93
2022-08-14T10:03:33.870Z,6.50
2022-08-14T10:06:13.689Z,5.88
2022-08-14T10:08:44.691Z,6.07
2022-08-14T10:11:19.507Z,6.20
2022-08-14T10:13:56.821Z,5.80
2022-08-14T10:16:33.474Z,5.15
2022-08-14T10:19:03.749Z,5.53
2022-08-14T10:21:30.252Z,5.50
2022-08-14T10:24:08.804Z,5.75
2022-08-14T10:26:37.084Z,5.47
2022-08-14T10:29:19.711Z,5.45
2022-08-14T10:31:59.355Z,6.60
2022-08-14T10:34:35.745Z,5.30
2022-08-14T10:37:14.079Z,5.80
2022-08-14T10:40:01.304Z,5.75
2022-08-14T10:42:41.140Z,5.82
2022-08-14T10:45:21.898Z,6.15
2022-08-14T10:48:07.232Z,5.85
2022-08-14T10:50:41.328Z,5.55
2022-08-14T10:53:09.097Z,4.90
2022-08-14T10:55:45.524Z,5.72
2022-08-14T10:58:13.952Z,5.90
2022-08-14T11:00:56.696Z,4.60
2022-08-14T11:03:35.819Z,4.53
2022-08-14T11:06:19.698Z,5.07
2022-08-14T11:08:48.074Z,5.28
2022-08-14T11:11:18.342Z,5.45
2022-08-14T11:13:46.455Z,5.72
2022-08-14T11:16:15.285Z,5.20
2022-08-14T11:18:50.597Z,5.45
2022-08-14T11:21:22.941Z,4.90
2022-08-14T11:23:53.401Z,5.15
2022-08-14T11:26:23.991Z,4.57
2022-08-14T11:28:51.017Z,4.93
2022-08-14T11:31:20.628Z,5.18
2022-08-14T11:33:51.265Z,5.40
2022-08-14T11:36:18.856Z,4.50
2022-08-14T11:38:46.565Z,4.88
2022-08-14T11:41:17.144Z,5.57
2022-08-14T11:43:57.704Z,4.70
2022-08-14T11:46:30.792Z,4.93
2022-08-14T11:51:42.866Z,5.00
2022-08-14T11:54:20.344Z,4.40
2022-08-14T11:57:00.652Z,5.00
2022-08-14T11:59:32.958Z,5.20
2022-08-14T12:03:00.343Z,5.20
2022-08-14T12:05:04.209Z,3.55
2022-08-14T12:07:32.014Z,3.13
2022-08-14T12:09:59.407Z,3.53
2022-08-14T12:12:35.784Z,4.18
2022-08-14T12:15:05.417Z,4.35
2022-08-14T12:17:47.716Z,4.28
2022-08-14T12:20:32.213Z,4.25
2022-08-14T12:23:01.342Z,4.88
2022-08-14T12:25:31.187Z,4.88
2022-08-14T12:28:05.766Z,4.55
2022-08-14T12:30:44.167Z,5.07
2022-08-14T12:33:33.251Z,4.65
2022-08-14T12:36:09.805Z,4.78
2022-08-14T12:38:41.340Z,4.72
2022-08-14T12:41:21.218Z,4.53
2022-08-14T12:44:04.866Z,4.78
2022-08-14T12:46:38.220Z,5.00
2022-08-14T12:49:17.813Z,4.18
2022-08-14T12:51:56.686Z,4.80
2022-08-14T12:54:28.572Z,5.45
2022-08-14T12:57:18.682Z,5.18
2022-08-14T12:59:46.406Z,4.78
2022-08-14T13:02:26.454Z,4.85
2022-08-14T13:04:55.973Z,4.80
2022-08-14T13:07:26.289Z,5.20
2022-08-14T13:09:57.970Z,5.40
2022-08-14T13:12:31.871Z,5.35
2022-08-14T13:15:09.049Z,5.15
2022-08-14T13:17:51.708Z,5.05
2022-08-14T13:22:53.078Z,4.88
2022-08-14T13:25:22.285Z,5.78
2022-08-14T13:27:54.573Z,5.18
2022-08-14T13:30:24.571Z,5.45
2022-08-14T13:32:53.395Z,5.20
2022-08-14T13:35:20.884Z,6.25
2022-08-14T13:37:52.191Z,5.88
2022-08-14T13:40:26.369Z,5.95
2022-08-14T13:42:56.715Z,6.50
2022-08-14T13:45:33.915Z,5.22
2022-08-14T13:48:30.657Z,5.53
2022-08-14T13:51:03.004Z,5.72
2022-08-14T13:53:33.754Z,6.13
2022-08-14T13:56:01.399Z,5.53
2022-08-14T13:58:35.519Z,5.22
2022-08-14T14:01:02.593Z,5.28
2022-08-14T14:03:35.335Z,4.70
2022-08-14T14:06:03.454Z,4.53
2022-08-14T14:08:46.452Z,5.00
2022-08-14T14:11:16.710Z,5.72
2022-08-14T14:13:48.204Z,5.45
2022-08-14T14:16:26.610Z,5.60
2022-08-14T14:19:08.670Z,5.18
2022-08-14T14:21:36.162Z,5.15
2022-08-14T14:24:04.727Z,5.72
2022-08-14T14:26:33.365Z,4.70
2022-08-14T14:29:07.656Z,4.93
2022-08-14T14:31:36.523Z,5.50
2022-08-14T14:34:07.280Z,4.50
2022-08-14T14:36:44.078Z,5.00
2022-08-14T14:39:20.078Z,5.20
2022-08-14T14:41:55.961Z,4.85
2022-08-14T14:44:26.920Z,4.50
2022-08-14T14:46:53.701Z,5.07
2022-08-14T14:49:22.242Z,5.50
2022-08-14T14:51:58.727Z,5.97
2022-08-14T14:54:31.785Z,5.70
2022-08-14T14:57:05.118Z,4.88
2022-08-14T14:59:38.117Z,5.30
2022-08-14T15:02:06.473Z,5.15
2022-08-14T15:04:37.839Z,5.45
2022-08-14T15:07:06.208Z,4.88
2022-08-14T15:09:33.852Z,5.25
2022-08-14T15:12:00.311Z,4.88
2022-08-14T15:14:54.559Z,4.72
2022-08-14T15:17:13.481Z,4.60
2022-08-14T15:19:40.968Z,4.78
2022-08-14T15:22:10.644Z,4.93
2022-08-14T15:24:38.016Z,5.80
2022-08-14T15:27:06.734Z,4.25
2022-08-14T15:29:43.063Z,4.90
2022-08-14T15:32:09.756Z,4.82
2022-08-14T15:34:50.980Z,5.78
2022-08-14T15:37:19.535Z,5.13
2022-08-14T15:39:46.204Z,5.72
2022-08-14T15:42:16.728Z,5.47
2022-08-14T15:44:57.434Z,5.20
2022-08-14T15:47:28.079Z,5.05
2022-08-14T15:49:59.167Z,4.50
2022-08-14T15:52:33.165Z,4.40
2022-08-14T15:55:15.158Z,4.75
2022-08-14T15:57:51.339Z,4.90
2022-08-14T16:00:52.586Z,5.35
2022-08-14T16:03:27.008Z,5.07
2022-08-14T16:06:02.033Z,5.63
2022-08-14T16:08:30.751Z,5.18
2022-08-14T16:11:01.080Z,5.78
2022-08-14T16:13:49.301Z,6.75
2022-08-14T16:16:47.700Z,5.35
2022-08-14T16:19:08.643Z,6.75
2022-08-14T16:21:39.376Z,5.43
2022-08-14T16:24:06.434Z,5.38
2022-08-14T16:26:33.766Z,6.25
2022-08-14T16:31:36.590Z,6.75
2022-08-14T16:34:46.969Z,6.85
2022-08-14T16:36:51.885Z,5.95
2022-08-14T16:39:18.818Z,6.03
2022-08-14T16:41:51.041Z,6.68
2022-08-14T16:44:21.603Z,6.90
2022-08-14T16:46:59.471Z,8.15
2022-08-14T16:49:35.261Z,6.32
2022-08-14T16:52:26.524Z,7.35
2022-08-14T16:55:04.698Z,7.38
2022-08-14T16:57:34.044Z,7.45
2022-08-14T17:00:00.892Z,6.75
2022-08-14T17:05:24.759Z,6.00
2022-08-14T17:08:32.712Z,7.10
2022-08-14T17:10:56.166Z,6.90
2022-08-14T17:13:59.854Z,6.07
2022-08-14T17:16:25.218Z,5.90
2022-08-14T17:19:00.691Z,6.95
2022-08-14T17:21:38.371Z,7.45
2022-08-14T17:24:56.536Z,6.75
2022-08-14T17:27:04.216Z,5.55
2022-08-14T17:29:44.770Z,6.80
2022-08-14T17:32:44.553Z,5.55
2022-08-14T17:35:10.707Z,7.07
2022-08-14T17:37:45.224Z,5.88
2022-08-14T17:40:22.836Z,6.03
2022-08-14T17:42:55.733Z,5.60
2022-08-14T17:45:41.425Z,6.60
2022-08-14T17:49:15.219Z,6.25
2022-08-14T17:51:12.312Z,5.50
2022-08-14T17:53:52.831Z,6.45
2022-08-14T17:56:20.706Z,5.97
2022-08-14T17:58:49.398Z,6.07
2022-08-14T18:01:23.323Z,5.57
2022-08-14T18:03:53.725Z,5.43
2022-08-14T18:06:38.780Z,6.20
2022-08-14T18:09:24.845Z,6.53
2022-08-14T18:11:55.394Z,5.38
2022-08-14T18:14:32.435Z,5.00
2022-08-14T18:17:10.726Z,5.55
2022-08-14T18:19:41.569Z,5.97
2022-08-14T18:22:31.165Z,5.70
2022-08-14T18:24:57.573Z,6.05
2022-08-14T18:27:37.618Z,5.18
2022-08-14T18:30:33.282Z,5.25
2022-08-14T18:32:59.033Z,5.45
2022-08-14T18:35:58.660Z,6.22
2022-08-14T18:38:46.257Z,5.53
2022-08-14T18:41:36.301Z,5.07
2022-08-14T18:44:10.035Z,5.03
2022-08-14T18:47:14.862Z,5.72
2022-08-14T18:50:00.839Z,5.13
2022-08-14T18:52:33.732Z,5.80
2022-08-14T18:55:20.652Z,6.18
2022-08-14T18:58:26.585Z,6.03
2022-08-14T19:00:56.093Z,5.80
2022-08-14T19:03:36.466Z,6.13
2022-08-14T19:06:04.813Z,5.72
2022-08-14T19:08:41.798Z,5.65
2022-08-14T19:11:32.141Z,6.07
2022-08-14T19:13:59.544Z,6.88
2022-08-14T19:16:37.751Z,6.53
2022-08-14T19:19:12.647Z,7.10
2022-08-14T19:21:55.280Z,6.35
2022-08-14T19:24:36.634Z,7.88
2022-08-14T19:27:24.520Z,7.32
2022-08-14T19:30:19.912Z,6.57
2022-08-14T19:32:56.100Z,6.60
2022-08-14T19:35:48.478Z,7.07
2022-08-14T19:38:48.120Z,7.95
2022-08-14T19:41:29.126Z,8.52
2022-08-14T19:44:20.042Z,8.13
2022-08-14T19:47:06.051Z,7.30
2022-08-14T19:50:07.930Z,9.10
2022-08-14T19:55:18.775Z,7.75
2022-08-14T19:57:52.128Z,8.98
2022-08-14T20:00:28.916Z,8.15
2022-08-14T20:03:11.698Z,7.20
2022-08-14T20:05:45.749Z,8.60
2022-08-14T20:10:59.555Z,7.70
2022-08-14T20:11:15.879Z,8.90
2022-08-14T20:13:59.019Z,9.85
2022-08-14T20:16:37.977Z,8.57
2022-08-14T20:19:11.953Z,8.43
2022-08-14T20:21:58.237Z,7.15
2022-08-14T20:24:41.151Z,8.07
2022-08-14T20:27:23.369Z,7.78
2022-08-14T20:30:28.794Z,8.45
2022-08-14T20:33:07.941Z,8.20
2022-08-14T20:35:44.462Z,6.82
2022-08-14T20:38:31.859Z,7.93
2022-08-14T20:41:06.507Z,7.07
2022-08-14T20:43:54.426Z,7.15
2022-08-14T20:46:30.011Z,7.45
2022-08-14T20:49:08.828Z,7.32
2022-08-14T20:51:54.727Z,7.40
2022-08-14T20:54:34.233Z,7.85
2022-08-14T20:57:21.189Z,7.63
2022-08-14T20:59:53.171Z,6.68
2022-08-14T21:02:30.716Z,7.65
2022-08-14T21:05:16.165Z,7.90
2022-08-14T21:07:51.226Z,7.22
2022-08-14T21:10:36.260Z,7.53
2022-08-14T21:13:26.807Z,8.45
2022-08-14T21:16:32.928Z,8.00
2022-08-14T21:18:58.384Z,6.72
2022-08-14T21:21:41.221Z,8.23
2022-08-14T21:24:09.974Z,7.63
2022-08-14T21:27:04.387Z,7.57
2022-08-14T21:29:41.081Z,8.40
2022-08-14T21:32:33.564Z,8.07
2022-08-14T21:37:43.935Z,8.52
2022-08-14T21:40:40.465Z,7.53
2022-08-14T21:43:01.156Z,7.75
2022-08-14T21:45:27.694Z,8.45
2022-08-14T21:47:56.761Z,8.88
2022-08-14T21:50:39.422Z,8.80
2022-08-14T21:53:12.860Z,8.43
2022-08-14T21:55:41.328Z,9.07
2022-08-14T21:58:52.044Z,8.25
2022-08-14T22:00:56.843Z,9.38
2022-08-14T22:03:26.150Z,8.02
2022-08-14T22:06:02.863Z,8.77
2022-08-14T22:08:29.558Z,8.43
2022-08-14T22:10:56.610Z,7.50
2022-08-14T22:13:26.425Z,7.90
2022-08-14T22:15:59.529Z,8.07
2022-08-14T22:18:27.161Z,8.85
2022-08-14T22:20:59.268Z,8.85
2022-08-14T22:23:27.096Z,9.15
2022-08-14T22:25:55.135Z,7.43
2022-08-14T22:28:32.685Z,8.80
2022-08-14T22:31:03.851Z,8.73
2022-08-14T22:33:37.880Z,9.07
2022-08-14T22:36:26.112Z,7.50
2022-08-14T22:38:54.529Z,8.15
2022-08-14T22:41:29.054Z,8.15
2022-08-14T22:44:04.231Z,7.75
2022-08-14T22:46:33.600Z,7.85
2022-08-14T22:49:00.911Z,8.43
2022-08-14T22:51:48.677Z,7.72
2022-08-14T22:54:52.158Z,7.68
2022-08-14T22:57:05.114Z,8.05
2022-08-14T22:59:39.081Z,7.75
2022-08-14T23:02:14.524Z,7.25
2022-08-14T23:04:54.320Z,7.75
2022-08-14T23:08:59.739Z,7.13
2022-08-14T23:12:59.634Z,6.78
2022-08-14T23:15:29.978Z,6.63
2022-08-14T23:17:57.609Z,6.45
2022-08-14T23:20:29.749Z,6.80
2022-08-14T23:22:57.543Z,6.85
2022-08-14T23:25:56.792Z,7.53
2022-08-14T23:28:34.495Z,6.32
2022-08-14T23:31:10.121Z,7.50
2022-08-14T23:33:42.090Z,6.90
2022-08-14T23:36:32.290Z,8.20
2022-08-14T23:39:01.964Z,7.35
2022-08-14T23:41:46.488Z,7.55
2022-08-14T23:44:21.589Z,6.90
2022-08-14T23:46:49.537Z,8.13
2022-08-14T23:49:21.433Z,7.78
2022-08-14T23:51:48.955Z,7.82
2022-08-14T23:54:49.141Z,7.80
2022-08-14T23:57:19.338Z,6.85
2022-08-14T23:59:54.652Z,7.28
